Time;durP1;ratioP1;P1;durP2;ratioP2;P2;SDS_P1;SDS_P2;PMS_P1;PMS_P2;Temp;Humidity;BMP_temperature;BMP_pressure;BME280_temperature;BME280_humidity;BME280_pressure;Samples;Min_cycle;Max_cycle;Signal;HPM_P1;HPM_P2
2021/11/04 00:02:08;;;;;;;186.73;69.83;;;8.50;86.10;;;;;;5029341;28;20744;-74
2021/11/04 00:04:34;;;;;;;174.57;65.85;;;8.50;86.30;;;;;;5030122;28;20445;-74
2021/11/04 00:07:00;;;;;;;161.10;63.08;;;8.50;85.30;;;;;;5035531;28;20411;-75
2021/11/04 00:09:26;;;;;;;165.00;63.60;;;8.50;85.10;;;;;;5031955;28;20391;-75
2021/11/04 00:11:51;;;;;;;159.97;65.37;;;8.50;84.90;;;;;;5030723;28;20733;-74
2021/11/04 00:14:17;;;;;;;168.70;64.75;;;8.50;84.80;;;;;;5024276;28;20412;-73
2021/11/04 00:16:43;;;;;;;147.75;64.07;;;8.50;83.70;;;;;;5022373;28;20809;-74
2021/11/04 00:19:09;;;;;;;156.57;63.33;;;8.50;83.70;;;;;;5030179;28;20816;-74
2021/11/04 00:21:34;;;;;;;164.13;66.03;;;8.50;83.40;;;;;;5030655;28;20395;-75
2021/11/04 00:24:00;;;;;;;171.50;67.80;;;8.40;83.30;;;;;;5029889;28;20395;-75
2021/11/04 00:26:26;;;;;;;155.40;57.70;;;8.40;85.00;;;;;;5029505;28;20846;-75
2021/11/04 00:28:53;;;;;;;150.32;57.05;;;8.40;83.00;;;;;;5019661;28;20397;-75
2021/11/04 00:31:19;;;;;;;172.18;64.47;;;8.40;84.00;;;;;;5033941;28;20403;-74
2021/11/04 00:33:45;;;;;;;155.18;56.28;;;8.30;85.00;;;;;;5029397;28;20421;-75
2021/11/04 00:36:11;;;;;;;147.80;59.00;;;8.30;84.40;;;;;;5030969;28;20783;-75
2021/11/04 00:38:36;;;;;;;168.63;64.10;;;8.30;85.40;;;;;;5023252;28;20393;-75
2021/11/04 00:41:02;;;;;;;154.68;59.10;;;8.20;86.10;;;;;;5011148;28;20389;-74
2021/11/04 00:43:28;;;;;;;153.55;61.92;;;8.30;84.80;;;;;;5025584;28;20762;-75
2021/11/04 00:45:53;;;;;;;157.73;62.90;;;8.30;86.00;;;;;;5035138;28;20391;-74
2021/11/04 00:48:19;;;;;;;155.43;58.57;;;8.30;85.30;;;;;;5024393;28;20892;-75
2021/11/04 00:50:45;;;;;;;156.90;59.37;;;8.30;83.60;;;;;;5011901;28;20427;-75
2021/11/04 00:53:10;;;;;;;149.37;59.23;;;8.20;84.40;;;;;;5011789;28;20396;-75
2021/11/04 00:55:36;;;;;;;148.93;58.57;;;8.20;84.30;;;;;;5033679;28;20448;-75
2021/11/04 00:58:02;;;;;;;156.33;59.67;;;8.20;84.10;;;;;;5021202;28;20397;-75
2021/11/04 01:00:28;;;;;;;157.32;61.75;;;8.20;84.50;;;;;;5013592;28;20384;-74
2021/11/04 01:02:54;;;;;;;163.90;64.53;;;8.20;84.40;;;;;;5014715;28;20381;-74
2021/11/04 01:05:20;;;;;;;160.90;59.80;;;8.20;84.80;;;;;;5015448;28;20399;-74
2021/11/04 01:07:45;;;;;;;158.70;61.63;;;8.20;83.30;;;;;;5026513;28;20401;-74
2021/11/04 01:10:11;;;;;;;165.00;62.40;;;8.30;82.50;;;;;;5029678;28;20971;-75
2021/11/04 01:12:37;;;;;;;159.50;60.45;;;8.20;82.30;;;;;;5030089;28;20383;-75
2021/11/04 01:15:05;;;;;;;170.60;62.60;;;8.20;82.20;;;;;;5025564;28;20411;-74
2021/11/04 01:17:32;;;;;;;151.75;61.50;;;8.20;83.20;;;;;;5033438;28;20384;-75
2021/11/04 01:19:58;;;;;;;159.38;59.97;;;8.20;83.20;;;;;;5034461;28;20401;-75
2021/11/04 01:22:23;;;;;;;147.70;58.47;;;8.20;82.60;;;;;;5032917;28;20387;-76
2021/11/04 01:24:49;;;;;;;152.23;60.30;;;8.20;81.90;;;;;;5021023;28;20400;-74
2021/11/04 01:27:14;;;;;;;171.83;63.60;;;8.20;82.00;;;;;;5026692;28;20448;-74
2021/11/04 01:29:40;;;;;;;164.40;64.00;;;8.20;82.40;;;;;;5018667;28;20425;-74
2021/11/04 01:32:11;;;;;;;173.30;64.13;;;8.20;82.60;;;;;;5041632;28;20418;-75
2021/11/04 01:34:37;;;;;;;164.85;64.15;;;8.20;81.70;;;;;;5036962;28;20446;-74
2021/11/04 01:37:02;;;;;;;170.90;64.10;;;8.10;82.00;;;;;;5036559;28;20386;-75
2021/11/04 01:39:28;;;;;;;157.50;59.07;;;8.20;82.80;;;;;;5030184;28;20748;-76
2021/11/04 01:41:54;;;;;;;170.90;61.87;;;8.10;81.90;;;;;;5032708;28;20760;-74
2021/11/04 01:44:19;;;;;;;164.50;60.13;;;8.10;82.30;;;;;;5028793;28;20402;-76
2021/11/04 01:46:45;;;;;;;180.82;65.47;;;8.10;82.70;;;;;;5032725;28;20529;-75
2021/11/04 01:49:11;;;;;;;189.85;70.25;;;8.00;83.90;;;;;;5016681;28;20401;-74
2021/11/04 01:51:36;;;;;;;190.45;67.90;;;8.00;84.90;;;;;;5013460;28;20415;-75
2021/11/04 01:54:02;;;;;;;192.25;69.20;;;8.00;85.30;;;;;;5026899;28;20407;-75
2021/11/04 01:56:28;;;;;;;188.87;67.10;;;8.10;85.40;;;;;;5032163;28;20395;-76
2021/11/04 01:58:53;;;;;;;179.98;66.30;;;8.10;84.10;;;;;;5023791;28;20736;-75
2021/11/04 02:01:19;;;;;;;176.10;67.82;;;8.10;83.90;;;;;;5033249;28;20394;-76
2021/11/04 02:04:07;;;;;;;184.68;67.28;;;8.10;83.90;;;;;;5033617;28;20461;-75
2021/11/04 02:06:49;;;;;;;176.95;65.28;;;8.10;84.10;;;;;;5030178;28;20398;-75
2021/11/04 02:09:33;;;;;;;182.98;66.25;;;8.10;83.30;;;;;;5032450;28;20398;-76
2021/11/04 02:12:06;;;;;;;162.80;61.33;;;8.10;83.50;;;;;;5032521;28;20407;-74
2021/11/04 02:14:38;;;;;;;172.27;64.03;;;8.10;82.00;;;;;;5029338;28;20741;-75
2021/11/04 02:17:06;;;;;;;172.13;60.28;;;8.10;82.80;;;;;;5032880;28;20445;-74
2021/11/04 02:20:00;;;;;;;174.90;61.80;;;8.10;82.20;;;;;;5032608;28;20474;-75
2021/11/04 02:22:28;;;;;;;168.13;62.22;;;8.10;81.10;;;;;;5034278;28;20489;-74
2021/11/04 02:25:13;;;;;;;161.60;61.10;;;8.10;82.00;;;;;;5018487;28;20403;-74
2021/11/04 02:27:43;;;;;;;140.55;49.42;;;8.10;82.20;;;;;;5029715;28;20383;-74
2021/11/04 02:30:09;;;;;;;165.85;58.53;;;7.90;80.70;;;;;;5032654;28;20737;-75
2021/11/04 02:32:36;;;;;;;164.68;57.75;;;7.90;82.50;;;;;;5034178;28;20397;-75
2021/11/04 02:35:03;;;;;;;166.52;54.50;;;7.90;83.70;;;;;;5031774;28;20737;-76
2021/11/04 02:37:30;;;;;;;182.40;62.63;;;7.80;84.00;;;;;;5032215;28;20408;-74
2021/11/04 02:39:57;;;;;;;164.45;58.70;;;7.80;85.70;;;;;;5032536;28;20396;-75
2021/11/04 02:42:23;;;;;;;172.00;56.22;;;7.80;86.00;;;;;;5034456;28;20752;-74
2021/11/04 02:44:49;;;;;;;153.32;52.53;;;7.80;86.60;;;;;;5030389;28;20496;-74
2021/11/04 02:47:15;;;;;;;142.45;50.75;;;7.80;86.90;;;;;;5034055;28;20387;-75
2021/11/04 02:49:43;;;;;;;157.53;55.30;;;7.80;86.50;;;;;;5024027;28;20680;-74
2021/11/04 02:52:09;;;;;;;143.23;51.15;;;7.80;87.50;;;;;;5034065;28;20384;-74
2021/11/04 02:54:34;;;;;;;145.07;48.40;;;7.80;86.00;;;;;;5032260;28;20418;-75
2021/11/04 02:57:00;;;;;;;159.20;55.87;;;7.70;86.70;;;;;;5032179;28;20490;-76
2021/11/04 02:59:27;;;;;;;167.87;56.23;;;7.70;89.00;;;;;;5032436;28;20383;-74
2021/11/04 03:01:56;;;;;;;171.77;56.30;;;7.70;88.50;;;;;;5030432;28;20391;-75
2021/11/04 03:04:21;;;;;;;157.10;53.97;;;7.80;88.60;;;;;;5029837;28;20397;-75
2021/11/04 03:06:48;;;;;;;148.10;48.50;;;7.80;88.30;;;;;;5031406;28;20741;-74
2021/11/04 03:09:15;;;;;;;143.37;50.70;;;7.70;83.50;;;;;;5038344;28;20378;-74
2021/11/04 03:11:41;;;;;;;137.77;46.22;;;7.70;85.40;;;;;;5030062;28;20442;-74
2021/11/04 03:14:06;;;;;;;144.90;51.70;;;7.70;82.90;;;;;;5033358;28;20411;-75
2021/11/04 03:16:41;;;;;;;143.77;49.50;;;7.60;84.10;;;;;;5031965;28;20387;-75
2021/11/04 03:19:09;;;;;;;155.20;52.97;;;7.70;84.30;;;;;;5031575;28;20399;-74
2021/11/04 03:21:38;;;;;;;150.38;53.92;;;7.70;83.50;;;;;;5031514;28;20369;-74
2021/11/04 03:24:05;;;;;;;156.95;53.03;;;7.70;84.30;;;;;;5031503;28;20399;-75
2021/11/04 03:26:33;;;;;;;155.93;50.03;;;7.70;84.30;;;;;;5031491;28;20433;-75
2021/11/04 03:29:01;;;;;;;149.93;49.75;;;7.70;83.20;;;;;;5029935;28;20903;-75
2021/11/04 03:31:27;;;;;;;166.23;54.30;;;7.70;84.60;;;;;;5037114;28;20399;-75
2021/11/04 03:33:54;;;;;;;152.50;49.63;;;7.70;85.50;;;;;;5029480;28;20515;-74
2021/11/04 03:36:21;;;;;;;157.48;50.15;;;7.60;85.10;;;;;;5031682;28;20744;-74
2021/11/04 03:38:49;;;;;;;162.82;53.80;;;7.60;86.20;;;;;;5023037;28;20924;-74
2021/11/04 03:41:18;;;;;;;163.82;52.10;;;7.60;88.20;;;;;;5029681;28;20391;-75
2021/11/04 03:43:45;;;;;;;170.52;52.92;;;7.70;87.00;;;;;;5030827;28;20745;-75
2021/11/04 03:46:11;;;;;;;155.33;50.97;;;7.70;86.50;;;;;;5025386;28;20432;-75
2021/11/04 03:48:42;;;;;;;159.93;51.05;;;7.70;84.00;;;;;;5016328;28;20406;-76
2021/11/04 03:51:08;;;;;;;162.25;55.30;;;7.60;83.10;;;;;;5024085;28;20395;-76
2021/11/04 03:53:39;;;;;;;159.00;53.10;;;7.60;85.10;;;;;;5029725;28;20407;-75
2021/11/04 03:56:05;;;;;;;165.10;53.67;;;7.70;85.20;;;;;;5023867;28;20842;-74
2021/11/04 03:58:33;;;;;;;148.67;47.70;;;7.80;86.40;;;;;;5031361;28;20418;-76
2021/11/04 04:00:59;;;;;;;150.43;49.92;;;7.70;82.20;;;;;;5030918;28;20432;-75
2021/11/04 04:03:24;;;;;;;151.48;49.50;;;7.60;83.00;;;;;;5029323;28;20399;-74
2021/11/04 04:06:01;;;;;;;148.53;46.57;;;7.50;84.20;;;;;;5045393;28;20742;-75
2021/11/04 04:08:27;;;;;;;161.45;47.88;;;7.50;84.80;;;;;;5032169;28;20406;-75
2021/11/04 04:10:53;;;;;;;164.15;53.83;;;7.50;85.20;;;;;;5030440;28;20407;-75
2021/11/04 04:13:18;;;;;;;159.60;51.83;;;7.50;86.50;;;;;;5030553;28;20384;-75
2021/11/04 04:15:44;;;;;;;157.60;52.47;;;7.50;85.50;;;;;;5020979;28;20903;-75
2021/11/04 04:18:10;;;;;;;169.33;53.77;;;7.50;87.00;;;;;;5028442;28;20395;-75
2021/11/04 04:20:35;;;;;;;168.38;52.67;;;7.50;86.50;;;;;;5031242;28;20449;-75
2021/11/04 04:23:01;;;;;;;157.57;51.28;;;7.60;86.60;;;;;;5029895;28;20422;-75
2021/11/04 04:25:28;;;;;;;157.98;48.92;;;7.60;86.00;;;;;;5019343;28;20733;-75
2021/11/04 04:27:54;;;;;;;172.98;55.55;;;7.50;85.50;;;;;;5011135;28;20417;-74
2021/11/04 04:30:19;;;;;;;177.37;54.20;;;7.50;86.80;;;;;;5018859;28;20410;-74
2021/11/04 04:32:45;;;;;;;172.23;50.60;;;7.50;85.70;;;;;;5037893;28;20410;-75
2021/11/04 04:35:11;;;;;;;163.50;53.70;;;7.50;85.50;;;;;;5028909;28;20572;-75
2021/11/04 04:37:36;;;;;;;169.30;55.50;;;7.50;87.60;;;;;;5030467;28;20410;-74
2021/11/04 04:40:02;;;;;;;152.97;52.97;;;7.60;86.70;;;;;;5028883;28;20387;-74
2021/11/04 04:42:27;;;;;;;161.50;51.63;;;7.70;85.20;;;;;;5038043;28;20395;-74
2021/11/04 04:44:53;;;;;;;145.27;48.97;;;7.70;84.40;;;;;;5019324;28;20408;-74
2021/11/04 04:47:18;;;;;;;163.97;51.87;;;7.70;81.60;;;;;;5010641;28;20396;-74
2021/11/04 04:49:44;;;;;;;163.00;52.83;;;7.70;81.80;;;;;;5017893;28;20445;-74
2021/11/04 04:52:09;;;;;;;167.70;56.70;;;7.70;81.10;;;;;;5041175;28;20843;-74
2021/11/04 04:54:35;;;;;;;175.13;57.10;;;7.60;79.40;;;;;;5032829;28;20957;-75
2021/11/04 04:57:01;;;;;;;160.80;54.15;;;7.70;80.90;;;;;;5015282;28;20766;-74
2021/11/04 04:59:27;;;;;;;148.10;52.72;;;7.70;80.60;;;;;;5023156;28;20429;-75
2021/11/04 05:01:52;;;;;;;166.00;53.83;;;7.70;81.10;;;;;;5030912;28;20406;-76
2021/11/04 05:04:18;;;;;;;150.10;53.73;;;7.80;82.00;;;;;;5029309;28;20400;-74
2021/11/04 05:06:44;;;;;;;156.10;51.43;;;7.70;81.20;;;;;;5013349;28;20401;-74
2021/11/04 05:09:09;;;;;;;168.30;55.90;;;7.80;80.70;;;;;;5019633;28;20401;-75
2021/11/04 05:11:35;;;;;;;164.40;55.65;;;7.80;79.80;;;;;;5027786;28;20901;-74
2021/11/04 05:14:00;;;;;;;171.55;59.75;;;7.80;80.20;;;;;;5031760;28;20414;-75
2021/11/04 05:16:26;;;;;;;167.95;56.10;;;7.80;80.10;;;;;;5021610;28;20448;-75
2021/11/04 05:18:51;;;;;;;170.88;58.25;;;7.80;79.30;;;;;;5019161;28;20415;-75
2021/11/04 05:21:17;;;;;;;151.32;53.53;;;7.80;82.40;;;;;;5027473;28;20860;-76
2021/11/04 05:23:43;;;;;;;143.38;50.70;;;7.90;78.30;;;;;;5035172;28;20402;-74
2021/11/04 05:26:09;;;;;;;143.80;50.67;;;7.90;77.00;;;;;;5026047;28;20402;-75
2021/11/04 05:28:36;;;;;;;142.57;49.08;;;7.80;77.50;;;;;;5020651;28;20841;-76
2021/11/04 05:31:02;;;;;;;138.82;48.60;;;7.80;78.80;;;;;;5033244;28;20455;-77
2021/11/04 05:33:28;;;;;;;145.65;50.25;;;7.70;79.40;;;;;;5041683;28;20513;-75
2021/11/04 05:35:54;;;;;;;153.82;51.33;;;7.60;81.30;;;;;;5026190;28;20401;-74
2021/11/04 05:38:19;;;;;;;133.17;44.13;;;7.60;82.30;;;;;;5014374;28;20519;-75
2021/11/04 05:40:45;;;;;;;129.80;46.00;;;7.50;77.50;;;;;;5014923;28;20447;-74
2021/11/04 05:43:11;;;;;;;151.13;48.28;;;7.40;80.20;;;;;;5033285;28;20457;-76
2021/11/04 05:45:36;;;;;;;146.90;47.22;;;7.40;81.70;;;;;;5023659;28;20388;-76
2021/11/04 05:48:02;;;;;;;144.50;46.15;;;7.30;83.10;;;;;;5020064;28;20393;-75
2021/11/04 05:50:27;;;;;;;146.88;47.45;;;7.30;83.00;;;;;;5023449;28;20406;-77
2021/11/04 05:52:53;;;;;;;148.30;48.30;;;7.30;83.50;;;;;;5043842;28;20409;-76
2021/11/04 05:55:19;;;;;;;163.43;49.53;;;7.30;82.60;;;;;;5029990;28;20498;-75
2021/11/04 05:57:44;;;;;;;150.50;50.23;;;7.30;83.40;;;;;;5014629;28;20391;-76
2021/11/04 06:00:10;;;;;;;153.83;49.83;;;7.30;84.90;;;;;;5032049;28;20387;-76
2021/11/04 06:02:35;;;;;;;134.60;48.20;;;7.40;85.00;;;;;;5033413;28;20819;-76
2021/11/04 06:05:01;;;;;;;139.20;46.83;;;7.50;83.70;;;;;;5033805;28;20403;-76
2021/11/04 06:07:28;;;;;;;126.53;44.20;;;7.50;81.00;;;;;;5027641;28;20398;-74
2021/11/04 06:09:53;;;;;;;148.90;47.83;;;7.50;82.40;;;;;;5047973;28;20415;-76
2021/11/04 06:12:19;;;;;;;129.97;44.13;;;7.50;82.00;;;;;;5043621;28;20749;-75
2021/11/04 06:14:45;;;;;;;140.90;46.73;;;7.40;81.30;;;;;;5032321;28;20827;-75
2021/11/04 06:17:10;;;;;;;149.23;47.65;;;7.30;80.90;;;;;;5030292;28;20411;-75
2021/11/04 06:19:36;;;;;;;154.00;48.45;;;7.30;83.30;;;;;;5013650;28;20469;-75
2021/11/04 06:22:02;;;;;;;129.88;44.38;;;7.40;82.60;;;;;;5024786;28;20391;-76
2021/11/04 06:24:28;;;;;;;139.32;46.65;;;7.40;81.40;;;;;;5032736;28;20863;-75
2021/11/04 06:26:54;;;;;;;128.68;41.95;;;7.40;82.60;;;;;;5019702;28;20404;-75
2021/11/04 06:29:19;;;;;;;131.50;44.60;;;7.40;79.90;;;;;;5026414;28;20868;-76
2021/11/04 06:31:45;;;;;;;142.87;46.73;;;7.40;80.10;;;;;;5031784;28;20399;-75
2021/11/04 06:34:10;;;;;;;142.13;46.90;;;7.30;80.10;;;;;;5032746;28;20811;-75
2021/11/04 06:36:36;;;;;;;151.93;49.90;;;7.30;80.60;;;;;;5024521;28;20559;-75
2021/11/04 06:39:03;;;;;;;170.70;58.08;;;7.30;81.30;;;;;;5039899;28;20435;-75
2021/11/04 06:41:28;;;;;;;147.80;48.88;;;7.20;82.30;;;;;;5031831;28;20399;-76
2021/11/04 06:43:54;;;;;;;150.55;49.30;;;7.30;78.90;;;;;;5032568;28;20445;-75
2021/11/04 06:46:25;;;;;;;136.65;45.97;;;7.30;78.30;;;;;;5030477;28;20453;-75
2021/11/04 06:49:02;;;;;;;130.38;42.17;;;7.30;78.00;;;;;;5016744;28;20424;-75
2021/11/04 06:51:30;;;;;;;118.70;38.42;;;7.10;77.60;;;;;;5027981;28;20460;-75
2021/11/04 06:53:58;;;;;;;126.65;41.83;;;7.00;80.90;;;;;;5031672;28;20453;-74
2021/11/04 06:56:25;;;;;;;108.57;39.38;;;7.00;82.20;;;;;;5024728;28;20437;-75
2021/11/04 06:58:53;;;;;;;121.00;37.25;;;7.10;82.60;;;;;;5031763;28;20729;-75
2021/11/04 07:01:20;;;;;;;120.82;37.65;;;7.00;80.80;;;;;;5031744;28;20402;-76
2021/11/04 07:03:56;;;;;;;115.22;37.95;;;7.00;82.30;;;;;;5035189;28;20439;-76
2021/11/04 07:06:27;;;;;;;125.50;41.00;;;7.00;81.50;;;;;;5027687;28;20411;-74
2021/11/04 07:08:58;;;;;;;108.20;37.67;;;7.10;82.30;;;;;;5030966;28;20407;-74
2021/11/04 07:11:28;;;;;;;128.02;40.88;;;7.10;80.70;;;;;;5031481;28;20399;-74
2021/11/04 07:13:54;;;;;;;129.23;40.75;;;7.20;81.60;;;;;;5029843;28;20423;-73
2021/11/04 07:16:25;;;;;;;109.57;39.35;;;7.20;79.60;;;;;;5021672;28;20482;-76
2021/11/04 07:18:52;;;;;;;129.45;39.60;;;7.30;81.50;;;;;;5028481;28;20488;-77
2021/11/04 07:21:38;;;;;;;130.02;42.25;;;7.30;78.00;;;;;;5033916;28;20402;-74
2021/11/04 07:24:06;;;;;;;128.73;43.42;;;7.30;79.10;;;;;;5022100;28;20411;-78
2021/11/04 07:26:39;;;;;;;122.30;39.20;;;7.50;84.60;;;;;;5035955;28;20450;-76
2021/11/04 07:29:07;;;;;;;129.30;41.40;;;7.40;77.30;;;;;;5030983;28;20407;-75
2021/11/04 07:31:41;;;;;;;137.30;43.53;;;7.40;79.50;;;;;;5029581;28;20549;-75
2021/11/04 07:34:09;;;;;;;135.50;46.45;;;7.40;79.50;;;;;;5027429;28;20406;-73
2021/11/04 07:36:37;;;;;;;119.10;40.27;;;7.40;80.30;;;;;;5030105;28;20476;-74
2021/11/04 07:39:08;;;;;;;122.97;42.20;;;7.40;77.90;;;;;;5029824;28;20486;-75
2021/11/04 07:41:34;;;;;;;121.00;43.30;;;7.40;78.70;;;;;;5041757;28;20481;-75
2021/11/04 07:44:02;;;;;;;128.43;45.33;;;7.40;77.90;;;;;;5026512;28;20945;-74
2021/11/04 07:46:29;;;;;;;128.35;46.00;;;7.50;78.70;;;;;;5033020;28;20403;-74
2021/11/04 07:48:56;;;;;;;127.60;43.83;;;7.50;79.00;;;;;;5032183;28;20563;-75
2021/11/04 07:51:22;;;;;;;127.45;45.22;;;7.50;77.70;;;;;;5034596;28;20392;-76
2021/11/04 07:53:48;;;;;;;140.43;49.63;;;7.50;79.90;;;;;;5029969;28;20418;-75
2021/11/04 07:56:13;;;;;;;127.90;48.27;;;7.60;80.30;;;;;;5031309;28;20764;-75
2021/11/04 07:58:39;;;;;;;103.73;44.93;;;7.70;80.50;;;;;;5030883;28;20490;-75
2021/11/04 08:01:05;;;;;;;108.35;45.70;;;7.70;78.20;;;;;;5030843;28;20387;-76
2021/11/04 08:03:31;;;;;;;101.78;41.35;;;7.60;78.20;;;;;;5026712;28;20406;-75
2021/11/04 08:05:57;;;;;;;103.60;41.57;;;7.80;74.20;;;;;;5030377;28;20395;-75
2021/11/04 08:08:23;;;;;;;99.87;42.00;;;7.80;74.30;;;;;;5035662;28;20517;-76
2021/11/04 08:10:52;;;;;;;87.00;35.53;;;8.00;74.00;;;;;;5037108;28;20399;-74
2021/11/04 08:13:19;;;;;;;83.47;34.70;;;8.20;63.70;;;;;;5030078;28;20463;-78
2021/11/04 08:15:44;;;;;;;72.55;34.42;;;8.20;63.10;;;;;;5031934;28;20438;-75
2021/11/04 08:18:10;;;;;;;83.70;35.53;;;8.10;64.10;;;;;;5033965;28;20398;-75
2021/11/04 08:20:37;;;;;;;88.07;38.35;;;8.00;66.20;;;;;;5032304;28;20404;-74
2021/11/04 08:23:14;;;;;;;91.43;38.83;;;7.90;68.70;;;;;;5033487;28;20416;-77
2021/11/04 08:25:41;;;;;;;89.13;38.67;;;7.90;69.20;;;;;;5027560;28;20407;-77
2021/11/04 08:28:07;;;;;;;88.32;38.53;;;7.90;69.80;;;;;;5034674;28;20768;-77
2021/11/04 08:30:34;;;;;;;84.82;37.85;;;7.90;71.90;;;;;;5038632;28;20383;-78
2021/11/04 08:33:02;;;;;;;96.28;42.05;;;8.00;73.20;;;;;;5038557;28;20487;-79
2021/11/04 08:35:30;;;;;;;96.88;42.67;;;8.00;72.10;;;;;;5023100;28;20861;-80
2021/11/04 08:37:55;;;;;;;83.15;40.15;;;8.00;73.00;;;;;;5033248;28;20415;-77
2021/11/04 08:40:21;;;;;;;98.70;42.43;;;7.90;72.60;;;;;;5033232;28;20397;-77
2021/11/04 08:42:47;;;;;;;92.70;41.40;;;7.90;74.70;;;;;;5033226;28;20375;-77
2021/11/04 08:45:13;;;;;;;93.63;41.22;;;8.00;74.30;;;;;;5027721;28;20929;-78
2021/11/04 08:47:39;;;;;;;90.93;40.42;;;7.90;73.60;;;;;;5029367;22;20978;-73
2021/11/04 08:50:09;;;;;;;88.28;40.55;;;7.90;73.70;;;;;;5009979;28;20389;-72
2021/11/04 08:52:35;;;;;;;95.57;39.28;;;7.90;73.50;;;;;;5010924;28;21084;-73
2021/11/04 08:55:06;;;;;;;90.97;38.97;;;7.90;74.10;;;;;;5010802;28;20417;-72
2021/11/04 08:57:31;;;;;;;85.37;39.33;;;8.00;73.20;;;;;;5010593;28;20412;-73
2021/11/04 08:59:57;;;;;;;81.50;37.47;;;8.00;73.10;;;;;;5009224;28;20389;-73
2021/11/04 09:02:22;;;;;;;81.57;36.80;;;8.20;69.80;;;;;;5011227;28;20746;-74
2021/11/04 09:04:49;;;;;;;78.40;36.88;;;8.20;68.60;;;;;;5012610;28;20400;-72
2021/11/04 09:07:17;;;;;;;77.63;38.73;;;8.30;65.60;;;;;;5010593;28;20396;-72
2021/11/04 09:09:43;;;;;;;79.32;37.15;;;8.20;67.30;;;;;;5024144;28;20391;-74
2021/11/04 09:12:09;;;;;;;84.00;37.90;;;8.20;65.10;;;;;;5030723;28;20390;-72
2021/11/04 09:14:35;;;;;;;91.82;39.38;;;8.40;65.00;;;;;;5013420;28;20419;-72
2021/11/04 09:17:01;;;;;;;87.93;41.00;;;8.40;64.00;;;;;;5009972;28;20434;-74
2021/11/04 09:19:26;;;;;;;83.63;38.23;;;8.50;63.90;;;;;;5011053;28;20397;-74
2021/11/04 09:21:52;;;;;;;82.25;38.75;;;8.60;61.10;;;;;;5010690;28;20396;-72
2021/11/04 09:24:18;;;;;;;86.85;39.47;;;8.70;61.20;;;;;;5010205;28;20798;-73
2021/11/04 09:26:44;;;;;;;82.28;38.40;;;8.60;60.20;;;;;;5010501;28;21085;-73
2021/11/04 09:29:10;;;;;;;90.70;41.80;;;8.60;61.80;;;;;;5010708;28;20376;-73
2021/11/04 09:31:35;;;;;;;88.88;40.90;;;8.70;63.60;;;;;;5028564;28;20786;-73
2021/11/04 09:34:01;;;;;;;94.07;41.30;;;8.80;62.40;;;;;;5017614;28;20527;-72
2021/11/04 09:36:31;;;;;;;72.75;34.80;;;8.90;62.90;;;;;;5011930;28;20408;-73
2021/11/04 09:38:58;;;;;;;70.47;33.72;;;8.90;58.00;;;;;;5014477;28;20714;-73
2021/11/04 09:41:24;;;;;;;61.80;30.77;;;9.00;57.00;;;;;;5014523;28;20527;-73
2021/11/04 09:43:50;;;;;;;65.75;32.13;;;9.00;55.40;;;;;;5013859;28;20917;-73
2021/11/04 09:46:16;;;;;;;66.93;33.43;;;8.90;56.90;;;;;;5013756;28;20412;-74
2021/11/04 09:48:41;;;;;;;73.57;35.97;;;9.00;56.70;;;;;;5014314;28;20491;-73
2021/11/04 09:51:08;;;;;;;68.37;33.37;;;9.00;59.10;;;;;;5012646;28;20405;-72
2021/11/04 09:53:34;;;;;;;62.88;32.13;;;9.00;60.50;;;;;;5002593;28;20402;-73
2021/11/04 09:56:01;;;;;;;66.00;32.60;;;9.30;58.40;;;;;;5007385;28;20401;-73
2021/11/04 09:58:27;;;;;;;56.50;29.88;;;9.50;58.70;;;;;;5014250;28;20393;-73
2021/11/04 10:00:52;;;;;;;55.92;29.95;;;9.60;52.20;;;;;;5013683;28;20399;-71
2021/11/04 10:03:18;;;;;;;59.72;32.08;;;9.50;53.30;;;;;;5012335;28;20385;-74
2021/11/04 10:05:52;;;;;;;63.10;33.33;;;9.60;53.60;;;;;;5014159;28;20484;-74
2021/11/04 10:08:34;;;;;;;67.97;33.03;;;9.70;53.10;;;;;;5014350;28;20392;-74
2021/11/04 10:11:11;;;;;;;67.85;33.00;;;9.60;55.40;;;;;;5014456;28;20817;-74
2021/11/04 10:13:38;;;;;;;66.43;34.50;;;9.60;53.70;;;;;;5020671;28;20396;-74
2021/11/04 10:16:06;;;;;;;77.10;35.30;;;9.70;53.90;;;;;;5015463;28;20385;-72
2021/11/04 10:19:01;;;;;;;70.00;35.72;;;9.60;54.30;;;;;;5013545;28;20455;-72
2021/11/04 10:21:43;;;;;;;75.30;35.30;;;10.00;53.50;;;;;;5014731;28;20416;-80
2021/11/04 10:24:45;;;;;;;68.10;33.10;;;10.30;50.40;;;;;;5019449;28;20531;-75
2021/11/04 10:27:28;;;;;;;67.28;33.80;;;10.20;50.40;;;;;;5017153;28;20427;-76
2021/11/04 10:29:54;;;;;;;65.37;33.20;;;10.20;48.90;;;;;;5023760;28;20470;-74
2021/11/04 10:32:31;;;;;;;82.37;39.83;;;10.20;49.50;;;;;;5021079;28;20896;-74
2021/11/04 10:35:06;;;;;;;71.30;37.40;;;10.10;52.60;;;;;;5018291;28;20771;-74
2021/11/04 10:37:42;;;;;;;71.47;36.45;;;10.00;53.40;;;;;;5014372;28;20797;-74
2021/11/04 10:40:08;;;;;;;65.13;34.55;;;10.30;50.30;;;;;;4998326;28;20408;-74
2021/11/04 10:42:58;;;;;;;101.38;53.67;;;10.50;49.60;;;;;;5015130;28;20393;-75
2021/11/04 10:45:28;;;;;;;77.30;38.85;;;10.30;51.80;;;;;;5001236;28;20791;-73
2021/11/04 10:48:26;;;;;;;71.50;38.10;;;10.00;50.40;;;;;;5022023;28;20408;-73
2021/11/04 10:50:51;;;;;;;78.20;40.88;;;10.00;50.30;;;;;;5021184;28;20413;-73
2021/11/04 10:53:24;;;;;;;111.93;52.13;;;10.00;50.20;;;;;;5025547;28;20420;-73
2021/11/04 10:56:13;;;;;;;135.13;72.25;;;9.90;51.00;;;;;;5023706;28;20404;-73
2021/11/04 10:58:39;;;;;;;77.13;41.72;;;9.80;55.60;;;;;;5012668;28;20443;-74
2021/11/04 11:01:05;;;;;;;79.77;43.07;;;9.70;53.50;;;;;;5011959;28;20893;-77
2021/11/04 11:03:31;;;;;;;90.37;47.27;;;9.60;55.60;;;;;;5013425;28;20397;-77
2021/11/04 11:06:00;;;;;;;77.45;42.35;;;9.60;55.90;;;;;;5013534;28;20892;-76
2021/11/04 11:08:27;;;;;;;97.95;53.60;;;9.70;55.00;;;;;;5012880;28;20401;-73
2021/11/04 11:10:54;;;;;;;88.35;47.28;;;9.80;54.20;;;;;;5011383;28;20401;-75
2021/11/04 11:13:20;;;;;;;70.53;39.95;;;9.90;54.20;;;;;;5014770;28;20762;-75
2021/11/04 11:15:56;;;;;;;75.78;42.90;;;9.90;53.10;;;;;;5016861;28;20416;-74
2021/11/04 11:18:24;;;;;;;75.55;40.15;;;9.80;53.70;;;;;;5010795;28;20389;-75
2021/11/04 11:20:51;;;;;;;77.57;40.67;;;9.90;53.60;;;;;;5010634;28;20757;-75
2021/11/04 11:23:18;;;;;;;76.55;41.60;;;9.90;54.10;;;;;;5010048;28;20677;-74
2021/11/04 11:25:59;;;;;;;76.45;41.03;;;9.90;53.20;;;;;;5012561;28;20408;-75
2021/11/04 11:28:31;;;;;;;79.30;43.38;;;9.90;54.50;;;;;;5011677;28;20937;-74
2021/11/04 11:31:09;;;;;;;68.00;39.20;;;10.00;54.80;;;;;;5011427;28;20407;-75
2021/11/04 11:33:43;;;;;;;66.43;39.37;;;10.10;53.80;;;;;;5006997;28;20405;-75
2021/11/04 11:36:13;;;;;;;66.60;38.25;;;10.20;54.00;;;;;;5007986;28;20404;-76
2021/11/04 11:38:58;;;;;;;69.35;40.65;;;10.40;50.70;;;;;;5010132;28;20735;-75
2021/11/04 11:41:30;;;;;;;67.53;38.92;;;10.40;50.50;;;;;;5011259;28;20396;-74
2021/11/04 11:43:57;;;;;;;78.00;42.88;;;10.60;49.40;;;;;;5010349;28;20495;-74
2021/11/04 11:46:23;;;;;;;78.60;42.45;;;10.70;49.00;;;;;;5010161;28;20488;-73
2021/11/04 11:49:11;;;;;;;96.85;52.58;;;10.80;49.20;;;;;;5014270;28;20419;-74
2021/11/04 11:51:42;;;;;;;90.13;50.60;;;10.90;50.80;;;;;;5012525;28;20416;-74
2021/11/04 11:54:08;;;;;;;77.82;42.05;;;11.00;51.50;;;;;;5012875;28;20464;-77
2021/11/04 11:56:34;;;;;;;75.90;44.27;;;11.20;45.80;;;;;;5012971;28;20435;-76
2021/11/04 11:59:19;;;;;;;98.22;51.25;;;11.50;46.00;;;;;;5013824;28;20385;-73
2021/11/04 12:01:47;;;;;;;81.22;46.38;;;11.70;46.20;;;;;;4993521;28;20422;-72
2021/11/04 12:04:25;;;;;;;74.22;41.25;;;11.90;43.40;;;;;;5003995;28;20397;-72
2021/11/04 12:06:55;;;;;;;80.57;42.80;;;12.00;39.10;;;;;;5031175;28;20408;-73
2021/11/04 12:09:35;;;;;;;84.95;44.55;;;12.00;39.80;;;;;;5015627;28;20875;-79
2021/11/04 12:12:01;;;;;;;81.43;45.53;;;11.80;41.70;;;;;;5004167;28;20466;-77
2021/11/04 12:14:29;;;;;;;85.95;45.60;;;11.60;42.60;;;;;;5014746;28;20416;-73
2021/11/04 12:17:01;;;;;;;80.87;45.57;;;11.60;43.60;;;;;;5011919;28;20558;-73
2021/11/04 12:19:37;;;;;;;83.53;45.25;;;12.10;41.00;;;;;;5011906;28;20955;-76
2021/11/04 12:22:05;;;;;;;76.65;43.88;;;12.20;40.10;;;;;;5010962;28;20412;-74
2021/11/04 12:24:31;;;;;;;75.53;41.83;;;12.10;39.80;;;;;;5012332;28;20405;-73
2021/11/04 12:27:13;;;;;;;91.65;46.10;;;12.00;39.90;;;;;;5011642;28;20540;-74
2021/11/04 12:29:39;;;;;;;81.65;42.97;;;12.00;39.90;;;;;;5013797;28;20397;-73
2021/11/04 12:32:12;;;;;;;85.70;45.53;;;12.00;41.40;;;;;;5018727;28;20738;-75
2021/11/04 12:34:38;;;;;;;81.60;45.75;;;11.80;42.70;;;;;;5012027;28;20404;-73